Terminal Aerodrome Forecast
Issued by NWS

Home | Current Version | Previous Version | Text Only | Print | Product List | Glossary On
Versions: 1 2 3 4 5 6 7 8 9 10 11 12 13 14 15 16
000
FTUS43 KJKL 141603 AAB
TAFSME
TAF AMD
KSME 141603Z 1416/1512 36008KT P6SM OVC028
     FM141700 32006KT P6SM FEW035 SCT120
     FM150200 VRB03KT P6SM SCT200=

USA.gov is the U.S. government's official web portal to all federal, state and local government web resources and services.